Time;durP1;ratioP1;P1;durP2;ratioP2;P2;SDS_P1;SDS_P2;PMS_P1;PMS_P2;Temp;Humidity;BMP_temperature;BMP_pressure;BME280_temperature;BME280_humidity;BME280_pressure;Samples;Min_cycle;Max_cycle;Signal;HPM_P1;HPM_P2
2022/01/28 00:01:02;;;;;;;2.07;1.00;;;17.40;64.20;;;;;;10518985;28;20657;-70
2022/01/28 00:06:24;;;;;;;3.37;1.13;;;17.40;64.20;;;;;;10507798;28;20299;-69
2022/01/28 00:11:46;;;;;;;2.87;1.00;;;17.40;64.20;;;;;;10486972;28;20231;-69
2022/01/28 00:17:43;;;;;;;3.30;1.20;;;17.40;64.20;;;;;;10495076;28;20216;-70
2022/01/28 00:40:16;;;;;;;2.37;1.07;;;17.40;64.30;;;;;;10494608;28;20188;-68
2022/01/28 00:45:38;;;;;;;2.33;0.93;;;17.40;64.20;;;;;;10494868;28;20591;-68
2022/01/28 00:51:01;;;;;;;2.63;1.10;;;17.40;64.20;;;;;;10493974;28;20208;-69
2022/01/28 00:56:23;;;;;;;3.17;1.20;;;17.40;64.20;;;;;;10485126;28;20212;-68
2022/01/28 01:01:46;;;;;;;3.10;1.13;;;17.40;64.20;;;;;;10493978;28;20196;-68
2022/01/28 01:07:10;;;;;;;3.10;1.43;;;17.40;64.20;;;;;;10495215;28;20216;-68
2022/01/28 01:12:35;;;;;;;2.20;0.93;;;17.40;64.10;;;;;;10493099;28;20216;-68
2022/01/28 01:18:02;;;;;;;2.50;1.13;;;17.40;64.10;;;;;;10493406;28;20215;-69
2022/01/28 01:23:29;;;;;;;2.43;1.20;;;17.40;64.10;;;;;;10475895;28;20537;-68
2022/01/28 01:28:51;;;;;;;2.00;0.90;;;17.40;64.10;;;;;;10453840;28;20209;-68
2022/01/28 01:34:16;;;;;;;4.17;1.33;;;17.40;64.10;;;;;;10451274;28;20216;-68
2022/01/28 01:39:42;;;;;;;4.03;1.10;;;17.40;64.10;;;;;;10451591;28;20208;-68
2022/01/28 01:45:43;;;;;;;2.87;1.10;;;17.40;64.10;;;;;;10488335;28;20277;-68
2022/01/28 01:56:41;;;;;;;2.97;0.97;;;17.40;64.10;;;;;;10464831;28;20626;-68
2022/01/28 02:02:03;;;;;;;3.47;1.10;;;17.40;64.10;;;;;;10476549;28;20197;-68
2022/01/28 02:07:27;;;;;;;2.97;1.60;;;17.40;64.10;;;;;;10465047;28;20687;-68
2022/01/28 02:12:52;;;;;;;4.17;1.53;;;17.40;64.10;;;;;;10492753;28;20223;-68
2022/01/28 02:18:14;;;;;;;2.83;1.20;;;17.40;64.00;;;;;;10490718;28;20702;-68
2022/01/28 02:23:39;;;;;;;4.67;1.40;;;17.40;64.00;;;;;;10492755;28;20201;-68
2022/01/28 02:29:08;;;;;;;2.53;0.93;;;17.40;64.00;;;;;;10452527;28;20304;-68
2022/01/28 02:34:30;;;;;;;3.43;1.20;;;17.40;64.00;;;;;;10475204;28;20232;-70
2022/01/28 02:39:53;;;;;;;2.93;1.10;;;17.40;64.00;;;;;;10488972;28;20671;-70
2022/01/28 02:45:25;;;;;;;3.63;1.20;;;17.40;64.00;;;;;;10494540;28;20216;-67
2022/01/28 02:51:01;;;;;;;2.70;1.40;;;17.40;64.00;;;;;;10494118;28;20212;-69
2022/01/28 02:56:35;;;;;;;2.30;1.00;;;17.40;64.00;;;;;;10458464;28;20596;-69
2022/01/28 03:01:57;;;;;;;2.43;1.07;;;17.40;63.90;;;;;;10473646;28;20185;-68
2022/01/28 03:07:23;;;;;;;2.90;1.00;;;17.40;63.90;;;;;;10497681;28;20217;-68
2022/01/28 03:13:02;;;;;;;3.63;1.23;;;17.40;63.90;;;;;;10498250;28;20212;-68
2022/01/28 03:18:30;;;;;;;3.87;1.10;;;17.40;63.90;;;;;;10480395;28;20217;-68
2022/01/28 03:23:53;;;;;;;4.20;1.33;;;17.30;63.80;;;;;;10456636;28;20189;-70
2022/01/28 03:29:16;;;;;;;3.27;1.00;;;17.40;63.90;;;;;;10455666;28;20276;-69
2022/01/28 03:34:38;;;;;;;2.63;1.17;;;17.40;63.80;;;;;;10488794;28;20224;-69
2022/01/28 03:40:01;;;;;;;2.83;1.10;;;17.40;63.80;;;;;;10496953;28;20193;-68
2022/01/28 03:45:24;;;;;;;2.90;1.20;;;17.40;63.80;;;;;;10496391;28;20222;-69
2022/01/28 03:50:46;;;;;;;3.80;1.13;;;17.40;63.80;;;;;;10490853;28;20722;-69
2022/01/28 03:56:09;;;;;;;3.83;1.40;;;17.30;63.80;;;;;;10462637;22;20217;-63
2022/01/28 04:01:36;;;;;;;2.60;1.10;;;17.40;63.80;;;;;;10466233;28;20216;-63
2022/01/28 04:12:40;;;;;;;3.27;1.10;;;17.30;63.70;;;;;;10458829;28;20358;-63
2022/01/28 04:18:04;;;;;;;3.50;1.20;;;17.30;63.70;;;;;;10451624;28;20197;-63
2022/01/28 04:23:26;;;;;;;1.43;0.70;;;17.30;63.70;;;;;;10453230;28;20200;-63
2022/01/28 04:28:48;;;;;;;2.13;0.80;;;17.30;63.70;;;;;;10463021;28;20213;-64
2022/01/28 04:34:12;;;;;;;3.03;1.00;;;17.30;63.70;;;;;;10452891;28;20220;-63
2022/01/28 04:39:42;;;;;;;2.90;0.93;;;17.30;63.60;;;;;;10451179;28;20216;-63
2022/01/28 04:45:12;;;;;;;3.33;1.17;;;17.30;63.70;;;;;;10455013;28;20189;-63
2022/01/28 04:50:45;;;;;;;3.43;1.40;;;17.40;63.70;;;;;;10458164;28;20216;-63
2022/01/28 04:56:21;;;;;;;2.40;1.20;;;17.30;63.50;;;;;;10451404;28;20208;-63
2022/01/28 05:02:05;;;;;;;3.77;1.30;;;17.40;63.50;;;;;;10473723;28;20216;-63
2022/01/28 05:07:43;;;;;;;2.07;0.90;;;17.40;63.50;;;;;;10491920;28;20192;-63
2022/01/28 05:13:40;;;;;;;2.23;0.97;;;17.40;63.50;;;;;;10454556;28;20220;-63
2022/01/28 05:30:23;;;;;;;3.07;1.17;;;17.40;63.60;;;;;;10462416;28;20216;-63
2022/01/28 05:35:45;;;;;;;2.63;1.23;;;17.40;63.60;;;;;;10477377;28;20192;-63
2022/01/28 05:41:09;;;;;;;2.53;1.03;;;17.40;63.60;;;;;;10450090;28;20686;-63
2022/01/28 05:46:31;;;;;;;2.57;1.10;;;17.50;63.60;;;;;;10480780;28;20565;-64
2022/01/28 05:51:53;;;;;;;2.90;0.90;;;17.40;63.50;;;;;;10453272;28;20229;-64
2022/01/28 05:57:17;;;;;;;3.07;1.30;;;17.40;63.50;;;;;;10455635;28;20211;-64
2022/01/28 06:02:39;;;;;;;2.77;1.10;;;17.40;63.50;;;;;;10480309;28;20693;-64
2022/01/28 06:08:01;;;;;;;3.87;1.23;;;17.40;64.10;;;;;;10463762;28;20197;-65
2022/01/28 06:13:25;;;;;;;2.90;1.10;;;17.40;63.50;;;;;;10470580;28;20581;-64
2022/01/28 06:18:47;;;;;;;1.97;1.00;;;17.50;63.50;;;;;;10458440;28;20231;-64
2022/01/28 06:24:09;;;;;;;3.03;1.37;;;17.40;63.50;;;;;;10462703;28;20208;-64
2022/01/28 06:29:33;;;;;;;2.43;1.10;;;17.40;63.50;;;;;;10498163;28;20294;-64
2022/01/28 06:34:55;;;;;;;3.13;1.20;;;17.40;63.40;;;;;;10497589;28;20208;-64
2022/01/28 06:40:18;;;;;;;2.57;1.00;;;17.40;63.40;;;;;;10459897;28;20225;-64
2022/01/28 06:45:43;;;;;;;2.37;0.70;;;17.40;63.40;;;;;;10461095;28;20200;-65
2022/01/28 06:51:05;;;;;;;2.40;0.97;;;17.40;63.40;;;;;;10475521;28;20300;-65
2022/01/28 06:56:27;;;;;;;2.60;1.10;;;17.40;63.50;;;;;;10473835;28;20204;-64
2022/01/28 07:01:53;;;;;;;2.40;1.03;;;17.40;63.50;;;;;;10472429;28;20246;-64
2022/01/28 07:07:15;;;;;;;3.40;1.03;;;17.40;63.50;;;;;;10475557;28;20192;-64
2022/01/28 07:12:38;;;;;;;1.97;0.97;;;17.40;63.50;;;;;;10460036;28;20586;-64
2022/01/28 07:18:03;;;;;;;6.30;1.60;;;17.40;63.50;;;;;;10468553;28;20573;-64
2022/01/28 07:23:26;;;;;;;6.67;1.40;;;17.40;63.90;;;;;;10475183;28;20200;-64
2022/01/28 07:28:49;;;;;;;5.57;1.30;;;17.40;63.40;;;;;;10453905;28;20224;-64
2022/01/28 07:34:13;;;;;;;4.80;1.40;;;17.30;63.60;;;;;;10465398;28;20559;-64
2022/01/28 07:39:35;;;;;;;4.90;1.20;;;17.40;63.70;;;;;;10472448;28;20582;-64
2022/01/28 07:44:57;;;;;;;4.20;1.27;;;17.50;63.90;;;;;;10464365;28;20654;-64
2022/01/28 07:50:21;;;;;;;3.23;1.10;;;17.40;63.60;;;;;;10450573;28;20229;-64
2022/01/28 07:55:43;;;;;;;4.43;1.50;;;17.40;63.50;;;;;;10459562;28;20211;-63
2022/01/28 08:01:06;;;;;;;4.17;1.70;;;17.40;63.30;;;;;;10479325;28;20566;-63
2022/01/28 08:06:30;;;;;;;3.90;1.10;;;17.40;63.50;;;;;;10474488;28;20201;-63
2022/01/28 08:11:52;;;;;;;2.90;1.30;;;17.40;63.60;;;;;;10483994;28;20232;-63
2022/01/28 08:17:14;;;;;;;4.40;1.50;;;17.40;63.80;;;;;;10485522;28;20196;-63
2022/01/28 08:22:46;;;;;;;3.67;1.40;;;17.40;63.60;;;;;;10464567;28;20213;-63
2022/01/28 08:28:08;;;;;;;3.00;1.07;;;17.40;63.50;;;;;;10481544;28;20196;-64
2022/01/28 08:33:30;;;;;;;4.90;1.30;;;17.30;64.30;;;;;;10493690;28;20712;-64
2022/01/28 08:38:55;;;;;;;5.00;1.53;;;17.30;63.80;;;;;;10492052;28;20212;-64
2022/01/28 08:44:17;;;;;;;3.30;1.27;;;17.40;63.80;;;;;;10493002;28;20665;-63
2022/01/28 08:49:40;;;;;;;3.87;1.10;;;17.40;63.80;;;;;;10476336;28;20313;-64
2022/01/28 08:55:04;;;;;;;4.63;1.80;;;17.30;63.60;;;;;;10474254;28;20224;-64
2022/01/28 09:00:26;;;;;;;3.63;1.13;;;17.40;63.40;;;;;;10482123;28;20689;-64
2022/01/28 09:05:49;;;;;;;3.00;1.27;;;17.40;63.90;;;;;;10452876;28;20194;-64
2022/01/28 09:11:34;;;;;;;4.13;1.50;;;17.30;63.50;;;;;;10449561;28;20572;-63
2022/01/28 09:16:56;;;;;;;3.53;1.50;;;17.40;62.80;;;;;;10464304;28;20197;-63
2022/01/28 09:22:19;;;;;;;6.20;1.73;;;17.30;62.60;;;;;;10465670;28;20295;-64
2022/01/28 09:27:43;;;;;;;4.23;1.50;;;17.30;62.60;;;;;;10487297;28;20196;-64
2022/01/28 09:33:05;;;;;;;5.47;1.60;;;17.30;62.70;;;;;;10483247;28;20216;-64
2022/01/28 09:38:28;;;;;;;4.90;1.50;;;17.30;62.80;;;;;;10462129;28;20244;-65
2022/01/28 09:43:52;;;;;;;4.90;1.60;;;17.40;63.60;;;;;;10450130;28;20199;-64
2022/01/28 09:49:15;;;;;;;2.87;1.30;;;17.40;63.80;;;;;;10448558;28;20216;-64
2022/01/28 09:54:37;;;;;;;4.07;1.50;;;17.40;64.00;;;;;;10446058;28;20293;-64
2022/01/28 10:00:01;;;;;;;4.47;1.30;;;17.40;64.10;;;;;;10473597;28;20724;-65
2022/01/28 10:05:26;;;;;;;5.70;1.90;;;17.40;63.80;;;;;;10481033;28;20546;-65
2022/01/28 10:11:03;;;;;;;4.83;1.63;;;17.40;62.80;;;;;;10482973;28;20708;-65
2022/01/28 10:16:29;;;;;;;4.40;1.83;;;17.40;63.00;;;;;;10472856;28;20554;-66
2022/01/28 10:21:51;;;;;;;4.47;2.07;;;17.30;62.60;;;;;;10468552;28;20693;-65
2022/01/28 10:27:16;;;;;;;4.80;1.90;;;17.40;62.70;;;;;;10452157;28;20209;-66
2022/01/28 10:32:42;;;;;;;5.13;2.10;;;17.30;63.00;;;;;;10479461;28;20690;-66
2022/01/28 10:38:07;;;;;;;4.10;1.77;;;17.30;63.40;;;;;;10461695;28;20563;-65
2022/01/28 10:43:29;;;;;;;5.93;1.80;;;17.40;64.10;;;;;;10459735;28;20239;-65
2022/01/28 10:48:54;;;;;;;4.33;1.70;;;17.40;63.60;;;;;;10444384;28;20224;-65
2022/01/28 10:54:18;;;;;;;3.70;1.70;;;17.40;64.00;;;;;;10445554;28;20248;-66
2022/01/28 10:59:41;;;;;;;5.00;1.90;;;17.40;63.70;;;;;;10450910;28;20244;-66
2022/01/28 11:05:06;;;;;;;4.20;1.73;;;17.40;63.80;;;;;;10487636;28;20200;-65
2022/01/28 11:10:29;;;;;;;5.23;1.70;;;17.40;63.00;;;;;;10466502;28;20239;-65
2022/01/28 11:15:51;;;;;;;5.27;1.90;;;17.40;63.10;;;;;;10480760;28;20220;-65
2022/01/28 11:21:17;;;;;;;3.73;1.73;;;17.40;62.90;;;;;;10480634;28;20220;-65
2022/01/28 11:26:49;;;;;;;4.17;1.70;;;17.40;63.90;;;;;;10461065;28;20349;-65
2022/01/28 11:32:15;;;;;;;5.20;1.90;;;17.50;64.30;;;;;;10459837;28;20598;-66
2022/01/28 11:37:38;;;;;;;3.43;1.63;;;17.40;64.30;;;;;;10454245;28;20193;-65
2022/01/28 11:43:17;;;;;;;4.23;1.53;;;17.40;64.30;;;;;;10453949;28;20191;-65
2022/01/28 11:49:24;;;;;;;3.17;1.63;;;17.50;64.30;;;;;;10453720;28;20678;-65
2022/01/28 11:54:48;;;;;;;3.20;1.37;;;17.50;64.20;;;;;;10351578;28;20248;-65
2022/01/28 12:00:21;;;;;;;4.60;1.43;;;17.50;64.40;;;;;;10458125;28;20223;-65
2022/01/28 12:05:51;;;;;;;3.20;1.40;;;17.50;64.20;;;;;;10452200;28;20287;-65
2022/01/28 12:11:43;;;;;;;5.37;1.93;;;17.60;64.20;;;;;;10463705;28;20228;-65
2022/01/28 12:17:36;;;;;;;3.43;1.27;;;17.50;63.80;;;;;;10468127;28;20612;-65
2022/01/28 12:23:26;;;;;;;4.07;1.60;;;17.60;63.90;;;;;;10463841;28;20205;-65
2022/01/28 12:28:51;;;;;;;4.93;1.53;;;17.60;64.00;;;;;;10454602;28;20216;-65
2022/01/28 12:34:18;;;;;;;2.47;1.30;;;17.60;64.00;;;;;;10453617;28;20217;-65
2022/01/28 12:39:49;;;;;;;3.83;1.40;;;17.50;63.80;;;;;;10460256;28;20212;-65
2022/01/28 12:45:13;;;;;;;4.30;1.57;;;17.60;63.80;;;;;;10465425;23;20186;-67
2022/01/28 12:50:35;;;;;;;4.60;1.63;;;17.60;63.80;;;;;;10383868;28;20221;-67
2022/01/28 12:55:59;;;;;;;3.60;1.50;;;17.60;63.70;;;;;;10409188;28;20228;-66
2022/01/28 13:01:22;;;;;;;4.00;1.57;;;17.60;63.70;;;;;;10406650;28;20216;-66
2022/01/28 13:08:24;;;;;;;3.07;1.40;;;17.60;63.70;;;;;;10415495;28;20189;-66
2022/01/28 13:12:37;;;;;;;4.20;1.40;;;17.60;63.70;;;;;;10447609;28;20213;-64
2022/01/28 13:18:02;;;;;;;3.47;1.07;;;17.60;63.60;;;;;;10420598;28;20190;-66
2022/01/28 13:23:34;;;;;;;2.83;1.40;;;17.60;63.60;;;;;;10391233;28;20285;-66
2022/01/28 13:29:08;;;;;;;5.27;1.40;;;17.60;63.50;;;;;;10409428;28;20746;-65
2022/01/28 13:34:46;;;;;;;3.17;1.20;;;17.60;63.50;;;;;;10434521;28;20228;-66
2022/01/28 13:40:10;;;;;;;3.57;1.37;;;17.60;63.40;;;;;;10410934;28;20217;-67
2022/01/28 13:45:36;;;;;;;3.23;1.47;;;17.60;63.50;;;;;;10410679;28;20206;-66
2022/01/28 13:51:07;;;;;;;2.07;1.10;;;17.60;63.50;;;;;;10409062;28;20224;-65
2022/01/28 13:56:30;;;;;;;3.93;1.40;;;17.60;63.50;;;;;;10410283;28;20213;-65
2022/01/28 14:01:54;;;;;;;4.17;1.40;;;17.60;63.50;;;;;;10428002;28;20590;-65
2022/01/28 14:07:20;;;;;;;2.90;1.20;;;17.60;63.50;;;;;;10451217;28;20189;-65
2022/01/28 14:12:44;;;;;;;2.80;1.40;;;17.60;63.40;;;;;;10451338;28;20698;-65
2022/01/28 14:18:07;;;;;;;2.87;1.40;;;17.60;63.40;;;;;;10405677;28;20248;-65
2022/01/28 14:23:30;;;;;;;3.37;1.30;;;17.60;63.40;;;;;;10415092;28;20189;-65
2022/01/28 14:34:32;;;;;;;2.87;1.20;;;17.60;63.40;;;;;;10407568;28;20575;-67
2022/01/28 14:39:56;;;;;;;4.73;1.53;;;17.60;63.40;;;;;;10421977;28;20221;-66
2022/01/28 14:45:19;;;;;;;3.77;1.63;;;17.60;63.30;;;;;;10432201;28;20208;-67
2022/01/28 14:50:41;;;;;;;5.20;1.30;;;17.60;63.30;;;;;;10447394;28;20218;-65
2022/01/28 14:56:05;;;;;;;3.00;1.30;;;17.60;63.30;;;;;;10416564;28;20213;-65
2022/01/28 15:01:27;;;;;;;4.30;1.90;;;17.60;63.30;;;;;;10422876;28;20586;-66
2022/01/28 15:06:49;;;;;;;1.73;1.10;;;17.60;63.30;;;;;;10414845;28;20193;-65
2022/01/28 15:12:12;;;;;;;2.77;1.50;;;17.60;63.30;;;;;;10413000;28;20222;-65
2022/01/28 15:17:35;;;;;;;5.17;1.20;;;17.60;63.30;;;;;;10405133;28;20536;-66
2022/01/28 15:22:57;;;;;;;3.40;1.23;;;17.60;63.30;;;;;;10414603;28;20194;-66
2022/01/28 15:28:22;;;;;;;2.53;1.40;;;17.60;63.30;;;;;;10413039;28;20695;-65
2022/01/28 15:39:24;;;;;;;5.90;1.63;;;17.60;63.30;;;;;;10413992;28;20537;-68
2022/01/28 15:44:47;;;;;;;3.93;1.40;;;17.60;63.30;;;;;;10450890;28;20193;-67
2022/01/28 15:50:12;;;;;;;2.73;1.30;;;17.60;63.20;;;;;;10449906;28;20225;-66
2022/01/28 15:55:34;;;;;;;4.07;1.60;;;17.60;63.20;;;;;;10449321;28;20220;-65
2022/01/28 16:00:58;;;;;;;3.37;1.67;;;17.60;63.20;;;;;;10412500;28;20218;-65
2022/01/28 16:06:20;;;;;;;2.23;1.33;;;17.60;63.20;;;;;;10416325;28;20193;-66
2022/01/28 16:11:46;;;;;;;3.07;1.30;;;17.60;63.20;;;;;;10413514;28;20209;-66
2022/01/28 16:17:27;;;;;;;2.67;1.03;;;17.60;63.20;;;;;;10411914;28;20300;-66
2022/01/28 16:22:49;;;;;;;2.50;1.20;;;17.60;63.20;;;;;;10411894;28;20229;-66
2022/01/28 16:28:13;;;;;;;1.93;1.00;;;17.60;63.20;;;;;;10412117;28;20190;-66
2022/01/28 16:33:37;;;;;;;4.80;1.60;;;17.60;63.20;;;;;;10411915;28;20228;-66
2022/01/28 16:39:00;;;;;;;3.50;1.53;;;17.60;63.20;;;;;;10411796;28;20217;-66
2022/01/28 16:44:24;;;;;;;3.73;1.53;;;17.60;63.20;;;;;;10412055;28;20189;-66
2022/01/28 16:49:47;;;;;;;2.53;1.50;;;17.60;63.20;;;;;;10421202;28;20246;-66
2022/01/28 16:55:17;;;;;;;3.70;1.67;;;17.60;63.20;;;;;;10410786;28;20225;-67
2022/01/28 17:00:39;;;;;;;5.17;1.60;;;17.60;63.10;;;;;;10401355;28;20214;-69
2022/01/28 17:06:05;;;;;;;5.57;1.60;;;17.60;63.20;;;;;;10398597;28;20193;-67
2022/01/28 17:11:41;;;;;;;3.50;1.70;;;17.60;63.10;;;;;;10389415;28;20218;-66
2022/01/28 17:17:03;;;;;;;2.77;1.50;;;17.60;63.10;;;;;;10442829;28;20228;-67
2022/01/28 17:22:27;;;;;;;3.33;1.37;;;17.70;63.30;;;;;;10415721;28;20603;-66
2022/01/28 17:27:50;;;;;;;3.80;1.73;;;17.60;63.20;;;;;;10440720;28;20196;-66
2022/01/28 17:33:12;;;;;;;2.40;1.27;;;17.70;63.30;;;;;;10428726;28;20221;-67
2022/01/28 17:38:36;;;;;;;4.03;1.80;;;17.70;63.50;;;;;;10425313;28;20304;-67
2022/01/28 17:43:58;;;;;;;2.80;1.53;;;17.60;63.50;;;;;;10427395;28;20194;-66
2022/01/28 17:49:22;;;;;;;5.07;2.07;;;17.60;63.50;;;;;;10423711;28;20240;-66
2022/01/28 17:54:46;;;;;;;3.83;2.10;;;17.60;63.40;;;;;;10421844;28;21548;-66
2022/01/28 18:00:09;;;;;;;5.63;2.33;;;17.60;63.40;;;;;;10415657;28;20678;-66
2022/01/28 18:05:32;;;;;;;6.40;3.03;;;17.60;63.30;;;;;;10414803;28;20414;-66
2022/01/28 18:10:56;;;;;;;7.90;2.97;;;17.80;60.50;;;;;;10419913;28;20576;-66
2022/01/28 18:16:18;;;;;;;6.87;2.80;;;18.00;60.50;;;;;;10413064;28;20214;-66
2022/01/28 18:21:40;;;;;;;5.50;2.30;;;17.80;61.80;;;;;;10433523;28;20221;-66
2022/01/28 18:27:05;;;;;;;4.87;2.03;;;17.70;62.20;;;;;;10424951;28;20564;-66
2022/01/28 18:32:27;;;;;;;6.00;2.67;;;17.70;62.30;;;;;;10386729;28;20222;-66
2022/01/28 18:37:50;;;;;;;6.73;2.30;;;17.60;62.30;;;;;;10369640;28;20195;-66
2022/01/28 18:43:16;;;;;;;4.67;2.13;;;17.70;62.40;;;;;;10400651;28;20556;-63
2022/01/28 18:48:39;;;;;;;5.40;2.40;;;17.70;62.40;;;;;;10437886;28;20225;-66
2022/01/28 18:54:02;;;;;;;4.53;2.40;;;17.70;62.40;;;;;;10451368;28;20366;-65
2022/01/28 18:59:26;;;;;;;4.17;2.10;;;17.70;62.40;;;;;;10431462;28;20229;-65
2022/01/28 19:04:48;;;;;;;5.33;2.50;;;17.70;62.40;;;;;;10421465;28;20189;-64
2022/01/28 19:10:14;;;;;;;5.67;2.17;;;17.70;62.50;;;;;;10428718;28;20256;-64
2022/01/28 19:15:38;;;;;;;3.80;2.03;;;17.70;62.50;;;;;;10427010;28;20216;-65
2022/01/28 19:21:00;;;;;;;5.97;2.13;;;17.70;62.60;;;;;;10426380;28;20218;-64
2022/01/28 19:26:22;;;;;;;4.93;2.30;;;17.70;62.60;;;;;;10422832;28;20197;-64
2022/01/28 19:31:46;;;;;;;5.47;2.23;;;17.70;62.70;;;;;;10426564;28;20222;-64
2022/01/28 19:37:08;;;;;;;6.40;2.37;;;17.60;62.60;;;;;;10428283;28;20583;-65
2022/01/28 19:42:30;;;;;;;4.47;1.93;;;17.60;62.60;;;;;;10426039;28;20228;-65
2022/01/28 19:47:54;;;;;;;3.20;1.70;;;17.60;62.60;;;;;;10425389;28;20193;-64
2022/01/28 19:53:16;;;;;;;4.57;2.20;;;17.60;62.60;;;;;;10425701;28;20204;-64
2022/01/28 19:58:39;;;;;;;4.53;2.17;;;17.60;62.60;;;;;;10426106;28;20213;-65
2022/01/28 20:04:03;;;;;;;4.13;2.03;;;17.60;62.70;;;;;;10423691;28;20193;-65
2022/01/28 20:09:25;;;;;;;5.20;2.30;;;17.60;62.60;;;;;;10424357;28;21026;-65
2022/01/28 20:14:50;;;;;;;5.10;2.20;;;17.70;62.70;;;;;;10424261;28;20592;-66
2022/01/28 20:20:14;;;;;;;3.27;2.17;;;17.70;62.70;;;;;;10420690;28;20247;-66
2022/01/28 20:25:36;;;;;;;4.93;2.07;;;17.60;62.70;;;;;;10425637;28;20193;-65
2022/01/28 20:30:58;;;;;;;3.90;2.23;;;17.60;62.70;;;;;;10426024;28;20811;-65
2022/01/28 20:36:22;;;;;;;3.93;2.00;;;17.70;62.70;;;;;;10421752;28;20327;-64
2022/01/28 20:41:46;;;;;;;3.13;1.80;;;17.60;62.70;;;;;;10420443;28;20221;-66
2022/01/28 20:47:09;;;;;;;2.83;1.63;;;17.60;62.70;;;;;;10412490;28;20196;-64
2022/01/28 20:52:33;;;;;;;5.87;2.20;;;17.60;62.70;;;;;;10430242;28;20225;-65
2022/01/28 20:57:56;;;;;;;5.83;2.30;;;17.60;62.60;;;;;;10408257;22;20226;-64
2022/01/28 21:03:18;;;;;;;3.27;1.83;;;17.70;62.70;;;;;;10370071;28;20256;-64
2022/01/28 21:08:41;;;;;;;4.03;2.07;;;17.60;62.60;;;;;;10369935;28;20222;-64
2022/01/28 21:14:04;;;;;;;4.93;1.90;;;17.70;62.70;;;;;;10370398;28;20222;-64
2022/01/28 21:19:26;;;;;;;2.57;1.90;;;17.70;62.70;;;;;;10375067;28;20347;-64
2022/01/28 21:24:50;;;;;;;4.50;2.03;;;17.70;62.70;;;;;;10381189;28;20187;-65
2022/01/28 21:30:13;;;;;;;5.10;1.87;;;17.60;62.60;;;;;;10368464;28;20227;-64
2022/01/28 21:35:36;;;;;;;3.77;1.67;;;17.70;62.70;;;;;;10391747;28;20220;-64
2022/01/28 21:41:00;;;;;;;4.53;2.00;;;17.60;62.60;;;;;;10368248;28;20218;-64
2022/01/28 21:46:22;;;;;;;3.70;1.60;;;17.60;62.60;;;;;;10372913;28;20198;-65
2022/01/28 21:51:44;;;;;;;3.47;1.90;;;17.60;62.60;;;;;;10408031;28;20213;-65
2022/01/28 21:57:08;;;;;;;4.40;2.13;;;17.60;62.60;;;;;;10409892;28;20225;-65
2022/01/28 22:02:31;;;;;;;4.97;1.93;;;17.60;62.60;;;;;;10370241;28;20222;-66
2022/01/28 22:07:54;;;;;;;3.70;1.77;;;17.60;62.60;;;;;;10367939;28;20273;-65
2022/01/28 22:13:17;;;;;;;3.77;1.70;;;17.60;62.60;;;;;;10368405;28;20576;-64
2022/01/28 22:18:41;;;;;;;5.17;1.70;;;17.60;62.60;;;;;;10368014;28;20210;-65
2022/01/28 22:24:03;;;;;;;3.83;2.00;;;17.60;62.60;;;;;;10368391;28;20190;-64
2022/01/28 22:29:27;;;;;;;5.63;1.60;;;17.60;62.60;;;;;;10366691;28;20223;-65
2022/01/28 22:34:50;;;;;;;4.37;1.90;;;17.60;62.70;;;;;;10368272;28;20682;-64
2022/01/28 22:40:14;;;;;;;2.63;1.57;;;17.60;62.70;;;;;;10367012;28;20218;-64
2022/01/28 22:45:38;;;;;;;4.70;1.83;;;17.60;62.70;;;;;;10367003;28;20281;-64
2022/01/28 22:51:00;;;;;;;3.43;1.70;;;17.60;62.70;;;;;;10345229;28;20214;-64
2022/01/28 22:56:24;;;;;;;5.93;1.63;;;17.60;62.70;;;;;;10367766;28;20232;-65
2022/01/28 23:01:49;;;;;;;3.40;1.70;;;17.60;62.70;;;;;;10370481;28;20226;-65
2022/01/28 23:07:13;;;;;;;4.57;1.90;;;17.60;62.70;;;;;;10379410;28;20190;-64
2022/01/28 23:12:35;;;;;;;2.90;1.47;;;17.60;62.70;;;;;;10372261;28;20222;-65
2022/01/28 23:17:59;;;;;;;3.80;1.93;;;17.60;62.70;;;;;;10373309;28;20223;-65
2022/01/28 23:23:21;;;;;;;3.10;1.57;;;17.60;62.70;;;;;;10372652;28;20572;-64
2022/01/28 23:28:43;;;;;;;2.60;1.73;;;17.60;62.60;;;;;;10372836;28;20214;-64
2022/01/28 23:34:07;;;;;;;3.03;1.60;;;17.50;62.60;;;;;;10371507;28;20714;-64
2022/01/28 23:39:29;;;;;;;3.77;1.90;;;17.60;62.60;;;;;;10371577;28;20211;-65
2022/01/28 23:44:51;;;;;;;3.53;1.50;;;17.60;62.60;;;;;;10372146;28;20183;-65
2022/01/28 23:50:14;;;;;;;3.60;1.50;;;17.60;62.60;;;;;;10379745;28;20214;-65
2022/01/28 23:55:37;;;;;;;3.43;1.90;;;17.60;62.70;;;;;;10371578;28;20218;-64
